createdAt,value
2018-02-18T00:01:41.085Z,69.90
2018-02-18T00:04:09.440Z,82.28
2018-02-18T00:06:37.019Z,75.15
2018-02-18T00:09:05.393Z,79.97
2018-02-18T00:11:32.979Z,78.30
2018-02-18T00:14:00.555Z,75.32
2018-02-18T00:16:28.236Z,74.47
2018-02-18T00:18:55.795Z,80.18
2018-02-18T00:21:23.379Z,85.00
2018-02-18T00:23:50.975Z,72.57
2018-02-18T00:26:22.687Z,65.57
2018-02-18T00:28:50.300Z,71.05
2018-02-18T00:31:17.896Z,63.00
2018-02-18T00:33:45.495Z,68.93
2018-02-18T00:36:13.080Z,67.57
2018-02-18T00:38:40.720Z,67.47
2018-02-18T00:41:08.305Z,60.38
2018-02-18T00:43:35.891Z,58.97
2018-02-18T00:46:03.504Z,61.30
2018-02-18T00:48:31.883Z,69.72
2018-02-18T00:50:59.491Z,63.25
2018-02-18T00:53:27.066Z,58.47
2018-02-18T00:55:54.623Z,64.90
2018-02-18T00:58:22.217Z,60.53
2018-02-18T01:00:49.829Z,59.88
2018-02-18T01:03:17.436Z,59.17
2018-02-18T01:05:45.017Z,68.50
2018-02-18T01:08:13.356Z,61.80
2018-02-18T01:10:41.708Z,66.87
2018-02-18T01:13:09.321Z,57.75
2018-02-18T01:15:36.910Z,71.37
2018-02-18T01:18:05.257Z,67.82
2018-02-18T01:20:32.848Z,74.85
2018-02-18T01:23:00.444Z,65.15
2018-02-18T01:25:28.008Z,61.40
2018-02-18T01:27:55.604Z,62.15
2018-02-18T01:30:23.177Z,59.85
2018-02-18T01:32:50.739Z,59.60
2018-02-18T01:35:19.087Z,62.60
2018-02-18T01:37:46.651Z,60.92
2018-02-18T01:40:14.239Z,66.12
2018-02-18T01:42:41.790Z,68.12
2018-02-18T01:45:09.355Z,66.90
2018-02-18T01:47:36.940Z,62.05
2018-02-18T01:53:06.126Z,63.00
2018-02-18T01:55:33.679Z,68.95
2018-02-18T01:58:01.254Z,70.07
2018-02-18T02:00:28.841Z,83.28
2018-02-18T02:02:56.430Z,70.68
2018-02-18T02:05:24.011Z,73.05
2018-02-18T02:07:51.573Z,91.10
2018-02-18T02:10:19.136Z,88.37
2018-02-18T02:12:46.716Z,90.57
2018-02-18T02:15:14.268Z,99.10
2018-02-18T02:17:41.867Z,94.35
2018-02-18T02:20:09.442Z,80.12
2018-02-18T02:22:37.037Z,73.07
2018-02-18T02:25:04.625Z,79.50
2018-02-18T02:27:32.972Z,83.03
2018-02-18T02:30:00.632Z,71.25
2018-02-18T02:32:28.203Z,72.85
2018-02-18T02:34:55.759Z,72.50
2018-02-18T02:37:23.362Z,72.57
2018-02-18T02:39:50.927Z,70.10
2018-02-18T02:42:18.512Z,65.80
2018-02-18T02:44:46.071Z,57.15
2018-02-18T02:47:13.663Z,60.15
2018-02-18T02:49:41.268Z,56.45
2018-02-18T02:52:09.600Z,62.95
2018-02-18T02:54:37.166Z,59.83
2018-02-18T02:57:04.769Z,66.97
2018-02-18T02:59:32.373Z,64.60
2018-02-18T03:01:59.996Z,68.70
2018-02-18T03:04:28.320Z,66.78
2018-02-18T03:06:56.656Z,69.28
2018-02-18T03:09:24.568Z,70.47
2018-02-18T03:11:52.130Z,67.30
2018-02-18T03:14:20.619Z,65.95
2018-02-18T03:16:48.183Z,62.10
2018-02-18T03:19:15.740Z,55.63
2018-02-18T03:21:43.330Z,63.28
2018-02-18T03:24:11.673Z,58.92
2018-02-18T03:26:39.280Z,58.53
2018-02-18T03:29:07.613Z,57.67
2018-02-18T03:31:35.172Z,55.45
2018-02-18T03:34:02.796Z,62.80
2018-02-18T03:36:30.364Z,61.15
2018-02-18T03:38:57.980Z,57.95
2018-02-18T03:41:25.540Z,61.13
2018-02-18T03:43:53.865Z,58.20
2018-02-18T03:46:21.476Z,59.58
2018-02-18T03:48:49.054Z,56.73
2018-02-18T03:51:17.419Z,57.75
2018-02-18T03:53:44.987Z,59.80
2018-02-18T03:56:13.320Z,69.65
2018-02-18T03:58:40.910Z,69.68
2018-02-18T04:01:08.479Z,68.87
2018-02-18T04:03:36.063Z,64.33
2018-02-18T04:06:04.321Z,77.28
2018-02-18T04:08:32.650Z,76.12
2018-02-18T04:11:00.234Z,75.22
2018-02-18T04:13:27.803Z,77.37
2018-02-18T04:15:55.394Z,74.93
2018-02-18T04:18:23.717Z,78.70
2018-02-18T04:20:51.275Z,80.27
2018-02-18T04:23:18.863Z,80.43
2018-02-18T04:25:46.433Z,82.93
2018-02-18T04:28:14.045Z,80.28
2018-02-18T04:30:41.619Z,85.97
2018-02-18T04:33:09.209Z,73.80
2018-02-18T04:35:36.790Z,75.03
2018-02-18T04:38:05.115Z,83.23
2018-02-18T04:40:32.777Z,73.87
2018-02-18T04:43:00.356Z,73.73
2018-02-18T04:45:27.914Z,75.78
2018-02-18T04:47:55.504Z,71.43
2018-02-18T04:50:23.839Z,76.47
2018-02-18T04:52:51.433Z,62.42
2018-02-18T04:55:19.031Z,73.78
2018-02-18T04:57:46.612Z,72.43
2018-02-18T05:00:14.194Z,69.28
2018-02-18T05:02:41.756Z,82.63
2018-02-18T05:05:09.368Z,73.90
2018-02-18T05:07:36.931Z,73.65
2018-02-18T05:10:04.509Z,85.95
2018-02-18T05:12:32.101Z,74.67
2018-02-18T05:14:59.714Z,76.18
2018-02-18T05:17:28.066Z,77.63
2018-02-18T05:19:55.622Z,77.87
2018-02-18T05:22:23.195Z,72.27
2018-02-18T05:24:51.552Z,73.05
2018-02-18T05:27:19.125Z,73.20
2018-02-18T05:29:47.503Z,64.50
2018-02-18T05:32:15.080Z,68.80
2018-02-18T05:34:43.420Z,78.32
2018-02-18T05:37:11.012Z,70.10
2018-02-18T05:39:39.352Z,62.75
2018-02-18T05:42:06.943Z,67.45
2018-02-18T05:44:35.467Z,66.10
2018-02-18T05:47:03.026Z,63.93
2018-02-18T05:49:30.624Z,80.13
2018-02-18T05:51:58.184Z,72.82
2018-02-18T05:54:25.863Z,85.40
2018-02-18T05:56:53.447Z,86.32
2018-02-18T05:59:21.787Z,83.20
2018-02-18T06:01:50.134Z,79.27
2018-02-18T06:04:18.648Z,73.18
2018-02-18T06:06:46.279Z,79.40
2018-02-18T06:09:13.873Z,73.83
2018-02-18T06:11:41.459Z,77.50
2018-02-18T06:14:09.818Z,65.97
2018-02-18T06:16:37.411Z,65.17
2018-02-18T06:19:05.772Z,71.47
2018-02-18T06:21:33.358Z,70.73
2018-02-18T06:24:00.972Z,67.70
2018-02-18T06:26:28.562Z,73.40
2018-02-18T06:28:57.770Z,64.28
2018-02-18T06:31:26.127Z,72.40
2018-02-18T06:33:53.701Z,60.00
2018-02-18T06:36:22.028Z,74.37
2018-02-18T06:38:49.615Z,76.70
2018-02-18T06:41:17.179Z,74.50
2018-02-18T06:43:44.794Z,101.27
2018-02-18T06:46:12.366Z,80.32
2018-02-18T06:48:39.928Z,75.00
2018-02-18T06:51:07.518Z,83.30
2018-02-18T06:53:35.086Z,86.67
2018-02-18T06:56:02.679Z,81.13
2018-02-18T06:58:31.021Z,77.45
2018-02-18T07:00:58.579Z,78.32
2018-02-18T07:03:26.178Z,85.33
2018-02-18T07:05:53.746Z,94.13
2018-02-18T07:08:21.352Z,79.00
2018-02-18T07:10:48.923Z,76.57
2018-02-18T07:13:16.516Z,75.28
2018-02-18T07:15:44.864Z,77.63
2018-02-18T07:18:12.443Z,67.57
2018-02-18T07:20:40.027Z,78.23
2018-02-18T07:23:07.604Z,83.07
2018-02-18T07:25:35.181Z,85.62
2018-02-18T07:28:02.783Z,74.57
2018-02-18T07:30:30.389Z,71.40
2018-02-18T07:32:57.964Z,61.60
2018-02-18T07:35:26.300Z,70.13
2018-02-18T07:37:53.868Z,69.77
2018-02-18T07:40:22.212Z,61.37
2018-02-18T07:42:49.771Z,67.63
2018-02-18T07:45:17.354Z,70.50
2018-02-18T07:47:48.853Z,71.90
2018-02-18T07:50:19.534Z,69.40
2018-02-18T07:52:47.858Z,68.10
2018-02-18T07:55:15.439Z,76.10
2018-02-18T07:57:43.027Z,64.10
2018-02-18T08:00:10.585Z,65.53
2018-02-18T08:02:38.173Z,69.07
2018-02-18T08:05:05.735Z,61.90
2018-02-18T08:07:33.290Z,82.83
2018-02-18T08:10:01.630Z,80.00
2018-02-18T08:12:31.592Z,80.27
2018-02-18T08:14:59.942Z,90.50
2018-02-18T08:17:27.515Z,68.57
2018-02-18T08:19:55.827Z,76.43
2018-02-18T08:22:23.440Z,75.13
2018-02-18T08:24:50.986Z,84.70
2018-02-18T08:27:18.571Z,73.83
2018-02-18T08:29:46.911Z,73.33
2018-02-18T08:32:14.462Z,78.47
2018-02-18T08:34:42.039Z,72.93
2018-02-18T08:37:09.599Z,84.93
2018-02-18T08:39:37.183Z,70.77
2018-02-18T08:42:04.733Z,77.27
2018-02-18T08:44:32.322Z,74.73
2018-02-18T08:47:00.679Z,82.83
2018-02-18T08:49:28.247Z,85.50
2018-02-18T08:51:55.827Z,106.50
2018-02-18T08:54:24.148Z,76.90
2018-02-18T08:56:51.705Z,82.37
2018-02-18T08:59:22.850Z,97.27
2018-02-18T09:02:13.387Z,81.53
2018-02-18T09:04:51.669Z,82.82
2018-02-18T09:07:26.792Z,79.80
2018-02-18T09:09:54.371Z,72.13
2018-02-18T09:12:21.942Z,79.00
2018-02-18T09:15:02.498Z,70.03
2018-02-18T09:17:36.346Z,62.70
2018-02-18T09:20:04.683Z,66.90
2018-02-18T09:22:32.287Z,65.53
2018-02-18T09:25:00.611Z,53.37
2018-02-18T09:33:20.287Z,62.53
2018-02-18T09:35:48.599Z,55.43
2018-02-18T09:38:16.159Z,64.85
2018-02-18T09:40:43.749Z,59.83
2018-02-18T09:43:11.314Z,71.78
2018-02-18T09:45:39.796Z,54.80
2018-02-18T09:48:07.373Z,57.07
2018-02-18T09:53:51.910Z,63.37
2018-02-18T09:56:19.462Z,58.40
2018-02-18T09:58:47.037Z,59.07
2018-02-18T10:01:14.603Z,66.37
2018-02-18T10:03:42.163Z,47.93
2018-02-18T10:06:09.726Z,52.93
2018-02-18T10:08:37.302Z,52.87
2018-02-18T10:11:04.903Z,60.75
2018-02-18T10:13:32.459Z,56.35
2018-02-18T10:16:00.015Z,55.10
2018-02-18T10:18:29.033Z,58.03
2018-02-18T10:20:56.576Z,55.00
2018-02-18T10:23:24.158Z,50.90
2018-02-18T10:25:51.707Z,54.33
2018-02-18T10:28:19.271Z,56.57
2018-02-18T10:30:46.842Z,57.00
2018-02-18T10:33:14.387Z,58.20
2018-02-18T10:35:42.079Z,56.97
2018-02-18T10:38:09.629Z,58.97
2018-02-18T10:40:37.167Z,57.93
2018-02-18T10:43:04.734Z,56.00
2018-02-18T10:45:32.305Z,58.60
2018-02-18T10:48:00.713Z,61.20
2018-02-18T10:50:28.231Z,60.53
2018-02-18T10:52:55.784Z,55.90
2018-02-18T10:55:23.365Z,53.60
2018-02-18T10:57:50.903Z,53.17
2018-02-18T11:00:18.479Z,56.60
2018-02-18T11:02:46.015Z,56.10
2018-02-18T11:05:13.556Z,55.03
2018-02-18T11:07:41.115Z,53.03
2018-02-18T11:10:08.663Z,55.10
2018-02-18T11:12:36.239Z,55.37
2018-02-18T11:15:04.566Z,55.47
2018-02-18T11:17:32.131Z,60.60
2018-02-18T11:19:59.699Z,51.87
2018-02-18T11:22:27.239Z,48.87
2018-02-18T11:24:54.815Z,50.47
2018-02-18T11:27:23.281Z,58.40
2018-02-18T11:29:59.128Z,57.37
2018-02-18T11:32:26.688Z,64.13
2018-02-18T11:34:54.252Z,58.67
2018-02-18T11:37:23.788Z,56.10
2018-02-18T11:39:51.339Z,61.10
2018-02-18T11:42:19.666Z,56.17
2018-02-18T11:44:48.992Z,52.00
2018-02-18T11:47:16.576Z,51.87
2018-02-18T11:49:44.187Z,51.13
2018-02-18T11:52:13.511Z,49.47
2018-02-18T11:54:41.084Z,48.50
2018-02-18T11:57:14.445Z,45.50
2018-02-18T11:59:42.812Z,45.60
2018-02-18T12:02:11.759Z,49.43
2018-02-18T12:04:39.302Z,49.87
2018-02-18T12:07:10.672Z,50.83
2018-02-18T12:09:38.214Z,48.40
2018-02-18T12:12:05.780Z,52.93
2018-02-18T12:14:33.315Z,44.07
2018-02-18T12:17:01.633Z,47.10
2018-02-18T12:19:29.215Z,52.73
2018-02-18T12:21:56.759Z,47.23
2018-02-18T12:24:24.355Z,50.53
2018-02-18T12:26:52.664Z,47.70
2018-02-18T12:29:20.205Z,48.70
2018-02-18T12:31:48.723Z,42.00
2018-02-18T12:34:16.315Z,42.40
2018-02-18T12:36:44.651Z,48.03
2018-02-18T12:39:12.200Z,42.40
2018-02-18T12:41:39.746Z,38.90
2018-02-18T12:44:08.079Z,40.60
2018-02-18T12:46:35.639Z,40.13
2018-02-18T12:49:03.219Z,44.70
2018-02-18T12:51:30.768Z,33.10
2018-02-18T12:53:58.310Z,41.27
2018-02-18T12:56:25.871Z,37.77
2018-02-18T12:58:53.430Z,36.30
2018-02-18T13:01:21.006Z,32.07
2018-02-18T13:03:48.548Z,36.03
2018-02-18T13:06:26.352Z,32.97
2018-02-18T13:08:54.660Z,37.40
2018-02-18T13:11:22.205Z,41.60
2018-02-18T13:13:49.783Z,37.07
2018-02-18T13:16:21.592Z,42.03
2018-02-18T13:18:49.175Z,38.80
2018-02-18T13:21:16.726Z,40.67
2018-02-18T13:29:42.321Z,41.87
2018-02-18T13:32:09.860Z,34.57
2018-02-18T13:34:37.403Z,40.47
2018-02-18T13:37:04.978Z,36.83
2018-02-18T13:39:34.551Z,32.20
2018-02-18T13:42:02.091Z,39.23
2018-02-18T13:44:30.435Z,38.87
2018-02-18T13:47:01.537Z,35.30
2018-02-18T13:49:29.090Z,33.77
2018-02-18T13:51:57.583Z,39.10
2018-02-18T13:54:25.133Z,38.80
2018-02-18T13:57:05.897Z,37.10
2018-02-18T13:59:38.174Z,29.73
2018-02-18T14:02:25.338Z,30.90
2018-02-18T14:04:52.926Z,35.23
2018-02-18T14:07:21.236Z,34.93
2018-02-18T14:09:48.814Z,37.97
2018-02-18T14:12:23.902Z,36.00
2018-02-18T14:15:11.708Z,35.37
2018-02-18T14:17:39.261Z,33.23
2018-02-18T14:20:06.808Z,37.73
2018-02-18T14:22:38.053Z,35.73
2018-02-18T14:25:05.591Z,35.70
2018-02-18T14:27:33.175Z,35.57
2018-02-18T14:30:07.843Z,32.93
2018-02-18T14:32:35.424Z,30.10
2018-02-18T14:35:03.735Z,33.00
2018-02-18T14:37:31.296Z,32.60
2018-02-18T14:40:15.598Z,33.57
2018-02-18T14:42:55.756Z,35.23
2018-02-18T14:45:35.941Z,40.00
2018-02-18T14:48:17.669Z,38.03
2018-02-18T14:50:57.874Z,34.90
2018-02-18T14:53:37.935Z,36.30
2018-02-18T14:56:17.257Z,36.40
2018-02-18T14:58:45.581Z,38.73
2018-02-18T15:01:13.136Z,36.33
2018-02-18T15:03:40.993Z,36.63
2018-02-18T15:06:08.558Z,41.23
2018-02-18T15:08:36.161Z,33.97
2018-02-18T15:11:07.559Z,40.30
2018-02-18T15:13:41.183Z,36.87
2018-02-18T15:16:26.680Z,37.87
2018-02-18T15:19:08.300Z,35.10
2018-02-18T15:21:36.628Z,37.90
2018-02-18T15:24:04.188Z,37.80
2018-02-18T15:26:31.784Z,36.90
2018-02-18T15:31:57.910Z,40.60
2018-02-18T15:34:28.819Z,42.63
2018-02-18T15:36:56.355Z,46.70
2018-02-18T15:39:24.718Z,38.30
2018-02-18T15:41:52.719Z,41.80
2018-02-18T15:44:20.404Z,41.77
2018-02-18T15:46:47.951Z,41.57
2018-02-18T15:49:15.489Z,44.13
2018-02-18T15:51:43.815Z,40.67
2018-02-18T15:54:11.379Z,41.37
2018-02-18T15:56:45.064Z,48.47
2018-02-18T15:59:12.604Z,42.93
2018-02-18T16:01:40.143Z,38.07
2018-02-18T16:04:12.680Z,45.30
2018-02-18T16:06:40.227Z,39.77
2018-02-18T16:09:11.163Z,44.77
2018-02-18T16:11:55.429Z,50.27
2018-02-18T16:14:23.007Z,43.33
2018-02-18T16:16:50.555Z,45.40
2018-02-18T16:19:18.116Z,47.53
2018-02-18T16:21:45.696Z,43.87
2018-02-18T16:24:13.271Z,50.63
2018-02-18T16:26:41.598Z,45.67
2018-02-18T16:29:09.276Z,46.10
2018-02-18T16:31:37.600Z,45.30
2018-02-18T16:34:05.935Z,41.97
2018-02-18T16:36:35.515Z,44.80
2018-02-18T16:39:03.062Z,53.60
2018-02-18T16:41:30.631Z,45.60
2018-02-18T16:43:58.255Z,43.37
2018-02-18T16:46:26.598Z,44.27
2018-02-18T16:48:54.518Z,39.13
2018-02-18T16:51:22.377Z,47.40
2018-02-18T16:53:50.748Z,46.87
2018-02-18T16:56:19.067Z,48.70
2018-02-18T16:58:46.698Z,46.23
2018-02-18T17:01:16.952Z,50.60
2018-02-18T17:03:46.495Z,46.30
2018-02-18T17:06:19.618Z,53.30
2018-02-18T17:08:47.959Z,49.53
2018-02-18T17:11:15.522Z,48.43
2018-02-18T17:13:44.700Z,63.03
2018-02-18T17:16:12.284Z,54.50
2018-02-18T17:18:39.832Z,45.10
2018-02-18T17:21:07.428Z,46.70
2018-02-18T17:23:35.763Z,48.07
2018-02-18T17:26:03.346Z,42.63
2018-02-18T17:28:37.722Z,52.47
2018-02-18T17:31:05.278Z,47.60
2018-02-18T17:33:32.860Z,48.50
2018-02-18T17:36:00.434Z,56.30
2018-02-18T17:38:28.003Z,51.70
2018-02-18T17:40:55.606Z,54.60
2018-02-18T17:43:23.941Z,53.57
2018-02-18T17:45:51.532Z,57.17
2018-02-18T17:48:19.107Z,50.80
2018-02-18T17:50:47.436Z,52.50
2018-02-18T17:53:15.590Z,58.70
2018-02-18T17:55:43.155Z,59.40
2018-02-18T17:58:12.676Z,59.87
2018-02-18T18:00:40.247Z,51.17
2018-02-18T18:03:07.795Z,63.90
2018-02-18T18:05:35.358Z,56.43
2018-02-18T18:08:02.898Z,56.20
2018-02-18T18:10:30.476Z,54.33
2018-02-18T18:12:58.799Z,51.10
2018-02-18T18:15:27.111Z,59.30
2018-02-18T18:17:54.699Z,60.63
2018-02-18T18:20:23.017Z,69.77
2018-02-18T18:22:51.352Z,59.60
2018-02-18T18:25:19.667Z,48.77
2018-02-18T18:27:48.718Z,50.25
2018-02-18T18:30:16.634Z,56.07
2018-02-18T18:32:44.958Z,62.58
2018-02-18T18:35:19.278Z,96.30
2018-02-18T18:37:46.834Z,58.20
2018-02-18T18:40:14.389Z,57.40
2018-02-18T18:42:41.993Z,54.43
2018-02-18T18:45:09.555Z,58.60
2018-02-18T18:47:37.146Z,49.30
2018-02-18T18:50:05.464Z,54.37
2018-02-18T18:52:39.648Z,52.40
2018-02-18T18:55:11.309Z,60.40
2018-02-18T18:57:38.880Z,57.03
2018-02-18T19:00:06.444Z,56.27
2018-02-18T19:02:33.991Z,53.37
2018-02-18T19:05:01.593Z,68.33
2018-02-18T19:07:29.163Z,60.88
2018-02-18T19:09:56.748Z,55.20
2018-02-18T19:12:25.073Z,57.22
2018-02-18T19:14:52.624Z,52.50
2018-02-18T19:17:20.192Z,56.50
2018-02-18T19:19:47.748Z,58.10
2018-02-18T19:22:15.331Z,60.23
2018-02-18T19:24:42.891Z,59.40
2018-02-18T19:27:11.473Z,57.40
2018-02-18T19:29:39.162Z,65.30
2018-02-18T19:32:06.726Z,60.63
2018-02-18T19:34:35.072Z,54.10
2018-02-18T19:37:02.884Z,60.22
2018-02-18T19:39:31.196Z,55.87
2018-02-18T19:41:58.794Z,61.87
2018-02-18T19:44:26.359Z,51.03
2018-02-18T19:47:05.381Z,54.27
2018-02-18T19:49:33.455Z,57.50
2018-02-18T19:52:01.023Z,57.60
2018-02-18T19:54:28.595Z,53.30
2018-02-18T19:56:56.914Z,48.57
2018-02-18T19:59:24.480Z,55.40
2018-02-18T20:01:52.874Z,46.93
2018-02-18T20:04:21.254Z,53.90
2018-02-18T20:06:48.827Z,46.97
2018-02-18T20:09:31.849Z,53.67
2018-02-18T20:12:06.432Z,56.60
2018-02-18T20:14:33.990Z,53.07
2018-02-18T20:17:01.556Z,58.03
2018-02-18T20:19:29.135Z,51.43
2018-02-18T20:21:56.797Z,51.10
2018-02-18T20:24:24.383Z,48.80
2018-02-18T20:26:51.930Z,49.03
2018-02-18T20:29:19.491Z,52.00
2018-02-18T20:31:47.082Z,57.27
2018-02-18T20:34:15.403Z,55.17
2018-02-18T20:36:42.992Z,53.77
2018-02-18T20:39:15.377Z,48.50
2018-02-18T20:41:42.919Z,45.40
2018-02-18T20:44:10.473Z,41.40
2018-02-18T20:46:38.049Z,43.53
2018-02-18T20:49:05.611Z,38.37
2018-02-18T20:51:33.739Z,37.13
2018-02-18T20:54:02.329Z,40.00
2018-02-18T20:56:32.345Z,40.70
2018-02-18T20:58:59.933Z,46.90
2018-02-18T21:01:27.502Z,41.10
2018-02-18T21:03:55.046Z,37.60
2018-02-18T21:06:22.615Z,37.07
2018-02-18T21:08:50.195Z,29.37
2018-02-18T21:11:17.731Z,37.57
2018-02-18T21:13:45.296Z,34.77
2018-02-18T21:16:18.473Z,30.40
2018-02-18T21:18:46.043Z,32.70
2018-02-18T21:21:13.589Z,30.73
2018-02-18T21:23:41.505Z,31.73
2018-02-18T21:26:09.071Z,31.97
2018-02-18T21:28:36.855Z,33.60
2018-02-18T21:31:04.583Z,34.00
2018-02-18T21:33:32.128Z,34.63
2018-02-18T21:35:59.695Z,31.40
2018-02-18T21:38:27.295Z,36.17
2018-02-18T21:40:55.600Z,34.70
2018-02-18T21:43:23.178Z,35.23
2018-02-18T21:45:50.726Z,44.00
2018-02-18T21:48:29.850Z,33.43
2018-02-18T21:50:57.392Z,35.17
2018-02-18T21:53:25.714Z,33.00
2018-02-18T21:55:53.287Z,36.07
2018-02-18T21:58:20.843Z,52.90
2018-02-18T22:00:48.439Z,39.00
2018-02-18T22:03:16.759Z,36.43
2018-02-18T22:05:44.313Z,39.47
2018-02-18T22:08:11.895Z,40.43
2018-02-18T22:10:39.446Z,38.83
2018-02-18T22:13:07.023Z,40.43
2018-02-18T22:15:34.575Z,38.00
2018-02-18T22:18:02.123Z,36.23
2018-02-18T22:20:29.702Z,38.37
2018-02-18T22:22:57.248Z,35.60
2018-02-18T22:25:24.843Z,35.50
2018-02-18T22:27:52.391Z,39.80
2018-02-18T22:30:19.940Z,38.87
2018-02-18T22:32:47.514Z,38.80
2018-02-18T22:35:15.062Z,32.43
2018-02-18T22:37:42.643Z,36.70
2018-02-18T22:40:10.198Z,38.70
2018-02-18T22:42:37.743Z,33.67
2018-02-18T22:45:05.347Z,34.43
2018-02-18T22:47:33.660Z,31.00
2018-02-18T22:50:01.251Z,35.43
2018-02-18T22:52:28.804Z,33.70
2018-02-18T22:54:56.363Z,31.47
2018-02-18T22:57:23.949Z,28.97
2018-02-18T22:59:51.497Z,30.27
2018-02-18T23:02:19.089Z,36.17
2018-02-18T23:04:47.401Z,31.53
2018-02-18T23:07:19.176Z,30.80
2018-02-18T23:09:47.484Z,30.33
2018-02-18T23:12:15.033Z,27.63
2018-02-18T23:14:42.619Z,30.33
2018-02-18T23:17:11.040Z,30.20
2018-02-18T23:19:38.618Z,30.48
2018-02-18T23:22:06.155Z,31.30
2018-02-18T23:24:33.695Z,29.93
2018-02-18T23:27:01.250Z,30.83
2018-02-18T23:29:29.552Z,31.60
2018-02-18T23:31:57.122Z,26.97
2018-02-18T23:34:24.673Z,29.63
2018-02-18T23:36:52.215Z,27.90
2018-02-18T23:39:19.783Z,28.77
2018-02-18T23:41:47.326Z,29.70
2018-02-18T23:44:15.673Z,29.13
2018-02-18T23:46:43.219Z,31.53
2018-02-18T23:49:10.763Z,29.37
2018-02-18T23:51:38.331Z,30.87
2018-02-18T23:54:05.883Z,29.00
2018-02-18T23:56:33.479Z,29.50
2018-02-18T23:59:01.083Z,26.90
